sensor_id;sensor_type;location;lat;lon;timestamp;pressure;altitude;pressure_sealevel;temperature;humidity
59829;BME280;45708;51.848;107.620;2023-06-04T00:00:06;94835.84;;;19.87;55.08
59829;BME280;45708;51.848;107.620;2023-06-04T00:05:07;94836.94;;;18.58;57.40
59829;BME280;45708;51.848;107.620;2023-06-04T00:10:09;94846.81;;;17.78;59.35
59829;BME280;45708;51.848;107.620;2023-06-04T00:15:10;94840.41;;;17.79;58.91
59829;BME280;45708;51.848;107.620;2023-06-04T00:20:11;94845.56;;;18.50;56.67
59829;BME280;45708;51.848;107.620;2023-06-04T00:25:12;94848.78;;;19.45;54.61
59829;BME280;45708;51.848;107.620;2023-06-04T00:30:13;94864.31;;;22.24;47.05
59829;BME280;45708;51.848;107.620;2023-06-04T00:35:13;94865.00;;;21.32;48.89
59829;BME280;45708;51.848;107.620;2023-06-04T00:40:14;94868.06;;;22.09;46.87
59829;BME280;45708;51.848;107.620;2023-06-04T00:45:15;94852.44;;;23.88;42.97
59829;BME280;45708;51.848;107.620;2023-06-04T00:50:16;94854.00;;;24.91;41.04
59829;BME280;45708;51.848;107.620;2023-06-04T00:55:17;94863.72;;;22.68;44.05
59829;BME280;45708;51.848;107.620;2023-06-04T01:00:18;94859.41;;;20.67;48.49
59829;BME280;45708;51.848;107.620;2023-06-04T01:05:51;94848.47;;;21.19;48.15
59829;BME280;45708;51.848;107.620;2023-06-04T01:10:57;94856.22;;;20.41;48.31
59829;BME280;45708;51.848;107.620;2023-06-04T01:15:58;94852.47;;;19.50;50.23
59829;BME280;45708;51.848;107.620;2023-06-04T01:21:06;94852.41;;;19.65;50.51
59829;BME280;45708;51.848;107.620;2023-06-04T01:26:08;94868.06;;;20.58;50.26
59829;BME280;45708;51.848;107.620;2023-06-04T01:31:09;94855.22;;;20.98;47.36
59829;BME280;45708;51.848;107.620;2023-06-04T01:36:11;94845.81;;;20.58;48.49
59829;BME280;45708;51.848;107.620;2023-06-04T01:41:11;94833.81;;;22.83;43.96
59829;BME280;45708;51.848;107.620;2023-06-04T01:46:12;94836.06;;;24.15;41.72
59829;BME280;45708;51.848;107.620;2023-06-04T01:51:13;94830.72;;;25.29;39.72
59829;BME280;45708;51.848;107.620;2023-06-04T01:56:14;94828.56;;;24.83;40.16
59829;BME280;45708;51.848;107.620;2023-06-04T02:01:15;94825.44;;;25.15;39.61
59829;BME280;45708;51.848;107.620;2023-06-04T02:06:15;94830.03;;;25.93;38.35
59829;BME280;45708;51.848;107.620;2023-06-04T02:11:16;94820.91;;;26.15;36.92
59829;BME280;45708;51.848;107.620;2023-06-04T02:16:17;94823.19;;;26.42;35.78
59829;BME280;45708;51.848;107.620;2023-06-04T02:21:18;94823.25;;;26.25;35.63
59829;BME280;45708;51.848;107.620;2023-06-04T02:26:19;94824.94;;;25.91;35.71
59829;BME280;45708;51.848;107.620;2023-06-04T02:31:20;94829.72;;;25.60;35.67
59829;BME280;45708;51.848;107.620;2023-06-04T02:36:20;94816.66;;;24.93;36.66
59829;BME280;45708;51.848;107.620;2023-06-04T02:41:22;94827.78;;;24.34;37.07
59829;BME280;45708;51.848;107.620;2023-06-04T02:46:23;94830.75;;;24.64;37.64
59829;BME280;45708;51.848;107.620;2023-06-04T02:51:24;94820.53;;;25.26;36.63
59829;BME280;45708;51.848;107.620;2023-06-04T02:56:25;94814.47;;;25.12;36.80
59829;BME280;45708;51.848;107.620;2023-06-04T03:01:26;94810.41;;;24.26;38.48
59829;BME280;45708;51.848;107.620;2023-06-04T03:06:27;94801.97;;;23.21;41.45
59829;BME280;45708;51.848;107.620;2023-06-04T03:11:28;94808.31;;;22.26;42.35
59829;BME280;45708;51.848;107.620;2023-06-04T03:16:29;94793.81;;;21.48;43.69
59829;BME280;45708;51.848;107.620;2023-06-04T03:21:30;94792.34;;;21.18;45.45
59829;BME280;45708;51.848;107.620;2023-06-04T03:26:30;94783.88;;;21.11;45.67
59829;BME280;45708;51.848;107.620;2023-06-04T03:31:31;94780.31;;;21.15;45.74
59829;BME280;45708;51.848;107.620;2023-06-04T03:36:32;94779.91;;;21.08;46.10
59829;BME280;45708;51.848;107.620;2023-06-04T03:41:33;94759.22;;;21.28;46.04
59829;BME280;45708;51.848;107.620;2023-06-04T03:46:34;94753.59;;;21.43;45.09
59829;BME280;45708;51.848;107.620;2023-06-04T03:51:34;94749.38;;;21.37;45.45
59829;BME280;45708;51.848;107.620;2023-06-04T03:56:35;94755.13;;;21.76;44.62
59829;BME280;45708;51.848;107.620;2023-06-04T04:01:36;94752.44;;;21.63;44.25
59829;BME280;45708;51.848;107.620;2023-06-04T04:06:38;94748.78;;;21.40;44.93
59829;BME280;45708;51.848;107.620;2023-06-04T04:11:38;94745.94;;;20.80;45.56
59829;BME280;45708;51.848;107.620;2023-06-04T04:16:39;94752.44;;;21.11;45.17
59829;BME280;45708;51.848;107.620;2023-06-04T04:21:40;94744.44;;;21.44;44.54
59829;BME280;45708;51.848;107.620;2023-06-04T04:26:41;94746.97;;;21.16;44.86
59829;BME280;45708;51.848;107.620;2023-06-04T04:31:41;94745.44;;;20.78;44.90
59829;BME280;45708;51.848;107.620;2023-06-04T04:36:43;94748.56;;;21.04;44.79
59829;BME280;45708;51.848;107.620;2023-06-04T04:41:44;94742.75;;;20.78;45.27
59829;BME280;45708;51.848;107.620;2023-06-04T04:46:45;94749.13;;;19.96;46.84
59829;BME280;45708;51.848;107.620;2023-06-04T04:51:46;94738.88;;;20.03;47.26
59829;BME280;45708;51.848;107.620;2023-06-04T04:56:47;94735.34;;;20.70;46.62
59829;BME280;45708;51.848;107.620;2023-06-04T05:01:47;94740.91;;;21.11;46.09
59829;BME280;45708;51.848;107.620;2023-06-04T05:06:48;94735.47;;;20.97;46.52
59829;BME280;45708;51.848;107.620;2023-06-04T05:11:49;94739.41;;;20.86;46.46
59829;BME280;45708;51.848;107.620;2023-06-04T05:16:50;94741.00;;;20.87;46.46
59829;BME280;45708;51.848;107.620;2023-06-04T05:21:51;94736.06;;;20.75;46.91
59829;BME280;45708;51.848;107.620;2023-06-04T05:26:51;94739.03;;;20.55;47.35
59829;BME280;45708;51.848;107.620;2023-06-04T05:31:52;94737.19;;;20.31;48.60
59829;BME280;45708;51.848;107.620;2023-06-04T05:36:53;94731.16;;;20.40;48.82
59829;BME280;45708;51.848;107.620;2023-06-04T05:41:54;94735.41;;;20.22;49.24
59829;BME280;45708;51.848;107.620;2023-06-04T05:46:55;94722.47;;;19.86;50.19
59829;BME280;45708;51.848;107.620;2023-06-04T05:51:55;94714.41;;;19.86;50.26
59829;BME280;45708;51.848;107.620;2023-06-04T05:56:56;94714.94;;;19.88;50.82
59829;BME280;45708;51.848;107.620;2023-06-04T06:01:57;94718.81;;;19.77;50.52
59829;BME280;45708;51.848;107.620;2023-06-04T06:06:58;94707.81;;;19.50;51.31
59829;BME280;45708;51.848;107.620;2023-06-04T06:11:59;94706.28;;;19.43;51.59
59829;BME280;45708;51.848;107.620;2023-06-04T06:17:00;94703.03;;;19.47;51.42
59829;BME280;45708;51.848;107.620;2023-06-04T06:22:02;94687.22;;;19.74;51.12
59829;BME280;45708;51.848;107.620;2023-06-04T06:27:03;94687.72;;;20.19;50.40
59829;BME280;45708;51.848;107.620;2023-06-04T06:32:04;94676.63;;;20.49;49.63
59829;BME280;45708;51.848;107.620;2023-06-04T06:37:06;94672.97;;;20.59;48.82
59829;BME280;45708;51.848;107.620;2023-06-04T06:42:07;94667.78;;;20.81;47.96
59829;BME280;45708;51.848;107.620;2023-06-04T06:47:08;94657.03;;;20.68;48.14
59829;BME280;45708;51.848;107.620;2023-06-04T06:52:10;94645.38;;;20.91;46.87
59829;BME280;45708;51.848;107.620;2023-06-04T06:57:11;94640.44;;;21.12;45.85
59829;BME280;45708;51.848;107.620;2023-06-04T07:02:12;94629.16;;;21.29;45.62
59829;BME280;45708;51.848;107.620;2023-06-04T07:07:13;94596.63;;;21.44;45.15
59829;BME280;45708;51.848;107.620;2023-06-04T07:12:14;94594.72;;;21.58;44.55
59829;BME280;45708;51.848;107.620;2023-06-04T07:17:15;94580.38;;;21.76;44.01
59829;BME280;45708;51.848;107.620;2023-06-04T07:22:16;94596.72;;;21.52;44.14
59829;BME280;45708;51.848;107.620;2023-06-04T07:27:16;94575.81;;;21.36;44.40
59829;BME280;45708;51.848;107.620;2023-06-04T07:32:17;94567.06;;;21.44;44.54
59829;BME280;45708;51.848;107.620;2023-06-04T07:37:18;94560.75;;;21.76;43.31
59829;BME280;45708;51.848;107.620;2023-06-04T07:42:19;94571.75;;;22.02;42.88
59829;BME280;45708;51.848;107.620;2023-06-04T07:47:19;94559.63;;;21.91;42.50
59829;BME280;45708;51.848;107.620;2023-06-04T07:52:22;94556.13;;;21.27;43.36
59829;BME280;45708;51.848;107.620;2023-06-04T07:57:23;94553.84;;;21.34;43.50
59829;BME280;45708;51.848;107.620;2023-06-04T08:02:24;94541.59;;;21.28;43.47
59829;BME280;45708;51.848;107.620;2023-06-04T08:07:25;94550.53;;;21.23;44.22
59829;BME280;45708;51.848;107.620;2023-06-04T08:12:26;94555.91;;;21.09;44.84
59829;BME280;45708;51.848;107.620;2023-06-04T08:17:27;94549.91;;;21.12;44.49
59829;BME280;45708;51.848;107.620;2023-06-04T08:22:27;94539.78;;;21.09;44.16
59829;BME280;45708;51.848;107.620;2023-06-04T08:27:28;94521.47;;;21.11;44.75
59829;BME280;45708;51.848;107.620;2023-06-04T08:32:29;94515.34;;;21.24;44.96
59829;BME280;45708;51.848;107.620;2023-06-04T08:37:30;94494.50;;;21.16;44.74
59829;BME280;45708;51.848;107.620;2023-06-04T08:42:43;94500.69;;;21.17;44.52
59829;BME280;45708;51.848;107.620;2023-06-04T08:47:49;94494.13;;;21.09;44.09
59829;BME280;45708;51.848;107.620;2023-06-04T08:52:53;94508.16;;;21.06;44.94
59829;BME280;45708;51.848;107.620;2023-06-04T08:57:54;94499.59;;;21.04;45.29
59829;BME280;45708;51.848;107.620;2023-06-04T09:02:55;94505.75;;;21.18;45.08
59829;BME280;45708;51.848;107.620;2023-06-04T09:08:00;94505.47;;;21.34;44.72
59829;BME280;45708;51.848;107.620;2023-06-04T09:13:02;94509.19;;;21.24;45.00
59829;BME280;45708;51.848;107.620;2023-06-04T09:18:04;94515.50;;;21.14;44.98
59829;BME280;45708;51.848;107.620;2023-06-04T09:23:14;94511.13;;;21.05;45.51
59829;BME280;45708;51.848;107.620;2023-06-04T09:28:15;94510.53;;;20.94;45.55
59829;BME280;45708;51.848;107.620;2023-06-04T09:33:16;94521.66;;;20.87;45.79
59829;BME280;45708;51.848;107.620;2023-06-04T09:38:17;94524.00;;;20.61;46.50
59829;BME280;45708;51.848;107.620;2023-06-04T09:43:23;94516.34;;;20.36;47.20
59829;BME280;45708;51.848;107.620;2023-06-04T09:48:24;94516.09;;;20.19;47.89
59829;BME280;45708;51.848;107.620;2023-06-04T09:53:25;94517.53;;;20.30;47.61
59829;BME280;45708;51.848;107.620;2023-06-04T09:58:27;94505.41;;;20.32;47.33
59829;BME280;45708;51.848;107.620;2023-06-04T10:03:33;94507.41;;;20.27;47.43
59829;BME280;45708;51.848;107.620;2023-06-04T10:08:35;94517.53;;;20.30;47.20
59829;BME280;45708;51.848;107.620;2023-06-04T10:13:48;94529.84;;;20.31;47.67
59829;BME280;45708;51.848;107.620;2023-06-04T10:18:52;94515.88;;;20.15;47.97
59829;BME280;45708;51.848;107.620;2023-06-04T10:23:54;94527.41;;;20.16;47.49
59829;BME280;45708;51.848;107.620;2023-06-04T10:28:56;94517.00;;;19.95;48.23
59829;BME280;45708;51.848;107.620;2023-06-04T10:33:58;94518.59;;;19.78;48.87
59829;BME280;45708;51.848;107.620;2023-06-04T10:38:59;94521.84;;;19.56;49.84
59829;BME280;45708;51.848;107.620;2023-06-04T10:44:02;94513.34;;;19.49;50.55
59829;BME280;45708;51.848;107.620;2023-06-04T10:49:03;94506.31;;;19.34;50.91
59829;BME280;45708;51.848;107.620;2023-06-04T10:54:04;94514.06;;;19.35;51.34
59829;BME280;45708;51.848;107.620;2023-06-04T10:59:15;94514.50;;;19.42;51.32
59829;BME280;45708;51.848;107.620;2023-06-04T11:04:24;94512.78;;;19.52;50.93
59829;BME280;45708;51.848;107.620;2023-06-04T11:09:25;94496.19;;;19.50;50.90
59829;BME280;45708;51.848;107.620;2023-06-04T11:14:27;94497.50;;;19.52;50.76
59829;BME280;45708;51.848;107.620;2023-06-04T11:19:36;94496.81;;;19.41;51.13
59829;BME280;45708;51.848;107.620;2023-06-04T11:24:37;94499.06;;;19.34;51.01
59829;BME280;45708;51.848;107.620;2023-06-04T11:29:38;94506.44;;;19.24;51.26
59829;BME280;45708;51.848;107.620;2023-06-04T11:34:39;94513.44;;;19.20;51.55
59829;BME280;45708;51.848;107.620;2023-06-04T11:39:40;94512.84;;;19.04;51.31
59829;BME280;45708;51.848;107.620;2023-06-04T11:44:40;94516.25;;;18.86;51.50
59829;BME280;45708;51.848;107.620;2023-06-04T11:49:41;94510.78;;;18.72;50.92
59829;BME280;45708;51.848;107.620;2023-06-04T11:54:42;94521.88;;;18.55;50.37
59829;BME280;45708;51.848;107.620;2023-06-04T11:59:43;94526.84;;;18.38;50.32
59829;BME280;45708;51.848;107.620;2023-06-04T12:04:44;94515.81;;;18.15;50.20
59829;BME280;45708;51.848;107.620;2023-06-04T12:09:44;94535.13;;;18.07;50.38
59829;BME280;45708;51.848;107.620;2023-06-04T12:14:45;94560.81;;;17.98;50.41
59829;BME280;45708;51.848;107.620;2023-06-04T12:19:51;94560.34;;;17.91;50.30
59829;BME280;45708;51.848;107.620;2023-06-04T12:24:54;94556.69;;;17.77;50.27
59829;BME280;45708;51.848;107.620;2023-06-04T12:30:05;94567.97;;;17.63;50.32
59829;BME280;45708;51.848;107.620;2023-06-04T12:35:06;94571.78;;;17.47;50.78
59829;BME280;45708;51.848;107.620;2023-06-04T12:40:08;94589.75;;;17.21;52.05
59829;BME280;45708;51.848;107.620;2023-06-04T12:45:09;94620.50;;;16.98;52.78
59829;BME280;45708;51.848;107.620;2023-06-04T12:50:11;94616.00;;;16.84;53.01
59829;BME280;45708;51.848;107.620;2023-06-04T12:55:12;94619.19;;;16.65;53.63
59829;BME280;45708;51.848;107.620;2023-06-04T13:00:13;94599.22;;;16.42;53.10
59829;BME280;45708;51.848;107.620;2023-06-04T13:05:14;94610.38;;;16.39;52.40
59829;BME280;45708;51.848;107.620;2023-06-04T13:10:15;94610.91;;;16.36;51.83
59829;BME280;45708;51.848;107.620;2023-06-04T13:15:16;94613.34;;;16.23;51.51
59829;BME280;45708;51.848;107.620;2023-06-04T13:20:17;94615.97;;;16.02;52.16
59829;BME280;45708;51.848;107.620;2023-06-04T13:25:17;94619.41;;;15.93;52.15
59829;BME280;45708;51.848;107.620;2023-06-04T13:30:18;94640.16;;;15.86;52.63
59829;BME280;45708;51.848;107.620;2023-06-04T13:35:19;94618.53;;;15.67;52.83
59829;BME280;45708;51.848;107.620;2023-06-04T13:40:20;94631.75;;;15.51;53.00
59829;BME280;45708;51.848;107.620;2023-06-04T13:45:21;94637.88;;;15.47;53.60
59829;BME280;45708;51.848;107.620;2023-06-04T13:50:22;94620.84;;;15.48;54.00
59829;BME280;45708;51.848;107.620;2023-06-04T13:55:23;94636.84;;;15.58;53.89
59829;BME280;45708;51.848;107.620;2023-06-04T14:00:24;94639.47;;;15.48;54.67
59829;BME280;45708;51.848;107.620;2023-06-04T14:05:25;94636.75;;;15.38;54.69
59829;BME280;45708;51.848;107.620;2023-06-04T14:10:26;94631.91;;;15.25;54.98
59829;BME280;45708;51.848;107.620;2023-06-04T14:15:26;94641.16;;;15.17;55.39
59829;BME280;45708;51.848;107.620;2023-06-04T14:20:27;94634.41;;;14.99;56.19
59829;BME280;45708;51.848;107.620;2023-06-04T14:25:28;94662.34;;;14.97;56.56
59829;BME280;45708;51.848;107.620;2023-06-04T14:30:29;94681.84;;;15.07;56.29
59829;BME280;45708;51.848;107.620;2023-06-04T14:35:30;94689.66;;;15.24;55.60
59829;BME280;45708;51.848;107.620;2023-06-04T14:40:30;94685.63;;;15.21;56.30
59829;BME280;45708;51.848;107.620;2023-06-04T14:45:31;94675.50;;;15.18;56.20
59829;BME280;45708;51.848;107.620;2023-06-04T14:50:32;94674.78;;;15.33;55.81
59829;BME280;45708;51.848;107.620;2023-06-04T14:55:36;94662.84;;;15.41;54.79
59829;BME280;45708;51.848;107.620;2023-06-04T15:00:37;94666.31;;;15.41;55.61
59829;BME280;45708;51.848;107.620;2023-06-04T15:05:38;94685.69;;;15.32;55.89
59829;BME280;45708;51.848;107.620;2023-06-04T15:10:39;94681.34;;;15.15;56.87
59829;BME280;45708;51.848;107.620;2023-06-04T15:15:39;94668.72;;;15.01;56.98
59829;BME280;45708;51.848;107.620;2023-06-04T15:20:40;94697.72;;;14.97;57.94
59829;BME280;45708;51.848;107.620;2023-06-04T15:25:43;94705.63;;;14.87;58.66
59829;BME280;45708;51.848;107.620;2023-06-04T15:30:45;94691.16;;;14.73;59.04
59829;BME280;45708;51.848;107.620;2023-06-04T15:35:46;94670.84;;;14.61;58.63
59829;BME280;45708;51.848;107.620;2023-06-04T15:40:47;94693.41;;;14.59;59.22
59829;BME280;45708;51.848;107.620;2023-06-04T15:45:47;94705.88;;;14.53;59.64
59829;BME280;45708;51.848;107.620;2023-06-04T15:50:48;94714.31;;;14.45;59.91
59829;BME280;45708;51.848;107.620;2023-06-04T15:55:50;94728.88;;;14.43;60.50
59829;BME280;45708;51.848;107.620;2023-06-04T16:00:51;94720.72;;;14.22;61.50
59829;BME280;45708;51.848;107.620;2023-06-04T16:05:52;94724.75;;;14.03;61.81
59829;BME280;45708;51.848;107.620;2023-06-04T16:10:53;94732.78;;;13.86;61.64
59829;BME280;45708;51.848;107.620;2023-06-04T16:15:54;94754.03;;;13.86;61.30
59829;BME280;45708;51.848;107.620;2023-06-04T16:20:55;94755.06;;;13.85;61.47
59829;BME280;45708;51.848;107.620;2023-06-04T16:25:56;94771.16;;;14.00;61.68
59829;BME280;45708;51.848;107.620;2023-06-04T16:30:57;94772.84;;;14.07;61.66
59829;BME280;45708;51.848;107.620;2023-06-04T16:35:58;94760.47;;;14.17;60.82
59829;BME280;45708;51.848;107.620;2023-06-04T16:40:58;94736.88;;;14.21;60.51
59829;BME280;45708;51.848;107.620;2023-06-04T16:45:59;94691.91;;;14.14;61.39
59829;BME280;45708;51.848;107.620;2023-06-04T16:51:00;94705.31;;;13.76;64.58
59829;BME280;45708;51.848;107.620;2023-06-04T16:56:01;94742.59;;;13.25;67.16
59829;BME280;45708;51.848;107.620;2023-06-04T17:01:01;94763.50;;;13.05;68.86
59829;BME280;45708;51.848;107.620;2023-06-04T17:06:03;94753.19;;;12.92;70.61
59829;BME280;45708;51.848;107.620;2023-06-04T17:11:04;94777.59;;;12.77;71.68
59829;BME280;45708;51.848;107.620;2023-06-04T17:16:05;94739.69;;;12.60;71.92
59829;BME280;45708;51.848;107.620;2023-06-04T17:21:05;94768.59;;;12.61;72.53
59829;BME280;45708;51.848;107.620;2023-06-04T17:26:06;94754.78;;;12.59;72.97
59829;BME280;45708;51.848;107.620;2023-06-04T17:31:07;94739.78;;;12.65;73.00
59829;BME280;45708;51.848;107.620;2023-06-04T17:36:08;94730.59;;;12.56;74.06
59829;BME280;45708;51.848;107.620;2023-06-04T17:41:08;94723.88;;;12.65;74.57
59829;BME280;45708;51.848;107.620;2023-06-04T17:46:09;94728.13;;;12.66;74.70
59829;BME280;45708;51.848;107.620;2023-06-04T17:51:10;94721.56;;;12.68;75.45
59829;BME280;45708;51.848;107.620;2023-06-04T17:56:11;94716.25;;;12.68;75.56
59829;BME280;45708;51.848;107.620;2023-06-04T18:01:12;94723.63;;;12.66;75.26
59829;BME280;45708;51.848;107.620;2023-06-04T18:06:13;94727.34;;;12.65;75.79
59829;BME280;45708;51.848;107.620;2023-06-04T18:11:14;94739.53;;;12.66;75.26
59829;BME280;45708;51.848;107.620;2023-06-04T18:16:14;94749.66;;;12.69;75.28
59829;BME280;45708;51.848;107.620;2023-06-04T18:21:15;94740.66;;;12.70;75.47
59829;BME280;45708;51.848;107.620;2023-06-04T18:26:16;94747.50;;;12.66;75.14
59829;BME280;45708;51.848;107.620;2023-06-04T18:31:17;94747.88;;;12.58;75.84
59829;BME280;45708;51.848;107.620;2023-06-04T18:36:18;94747.03;;;12.41;76.63
59829;BME280;45708;51.848;107.620;2023-06-04T18:41:19;94735.44;;;12.13;76.34
59829;BME280;45708;51.848;107.620;2023-06-04T18:46:20;94739.88;;;11.96;77.16
59829;BME280;45708;51.848;107.620;2023-06-04T18:51:21;94742.44;;;11.79;77.83
59829;BME280;45708;51.848;107.620;2023-06-04T18:56:22;94717.06;;;11.55;78.03
59829;BME280;45708;51.848;107.620;2023-06-04T19:01:23;94743.19;;;11.51;77.38
59829;BME280;45708;51.848;107.620;2023-06-04T19:06:23;94739.97;;;11.49;77.24
59829;BME280;45708;51.848;107.620;2023-06-04T19:11:24;94729.84;;;11.46;76.88
59829;BME280;45708;51.848;107.620;2023-06-04T19:16:25;94735.25;;;11.40;76.71
59829;BME280;45708;51.848;107.620;2023-06-04T19:21:26;94710.78;;;11.21;76.60
59829;BME280;45708;51.848;107.620;2023-06-04T19:26:27;94719.41;;;11.16;77.04
59829;BME280;45708;51.848;107.620;2023-06-04T19:31:27;94725.75;;;11.04;76.72
59829;BME280;45708;51.848;107.620;2023-06-04T19:36:28;94717.47;;;10.88;77.00
59829;BME280;45708;51.848;107.620;2023-06-04T19:41:29;94722.06;;;10.81;77.78
59829;BME280;45708;51.848;107.620;2023-06-04T19:46:30;94726.53;;;10.69;78.11
59829;BME280;45708;51.848;107.620;2023-06-04T19:51:31;94728.03;;;10.65;78.20
59829;BME280;45708;51.848;107.620;2023-06-04T19:56:31;94732.59;;;10.58;78.30
59829;BME280;45708;51.848;107.620;2023-06-04T20:01:32;94740.75;;;10.56;78.42
59829;BME280;45708;51.848;107.620;2023-06-04T20:06:33;94729.50;;;10.49;78.08
59829;BME280;45708;51.848;107.620;2023-06-04T20:11:34;94724.97;;;10.38;78.63
59829;BME280;45708;51.848;107.620;2023-06-04T20:16:35;94676.97;;;9.99;78.78
59829;BME280;45708;51.848;107.620;2023-06-04T20:21:35;94717.66;;;10.10;78.74
59829;BME280;45708;51.848;107.620;2023-06-04T20:26:36;94725.72;;;9.97;79.33
59829;BME280;45708;51.848;107.620;2023-06-04T20:31:37;94722.97;;;9.92;79.49
59829;BME280;45708;51.848;107.620;2023-06-04T20:36:38;94707.59;;;9.89;79.79
59829;BME280;45708;51.848;107.620;2023-06-04T20:41:38;94722.28;;;9.96;80.43
59829;BME280;45708;51.848;107.620;2023-06-04T20:46:39;94726.19;;;9.94;79.84
59829;BME280;45708;51.848;107.620;2023-06-04T20:51:40;94730.31;;;9.90;80.58
59829;BME280;45708;51.848;107.620;2023-06-04T20:56:43;94723.94;;;9.79;80.97
59829;BME280;45708;51.848;107.620;2023-06-04T21:01:44;94731.50;;;9.75;81.30
59829;BME280;45708;51.848;107.620;2023-06-04T21:06:44;94736.19;;;9.73;81.33
59829;BME280;45708;51.848;107.620;2023-06-04T21:11:45;94730.91;;;9.73;81.77
59829;BME280;45708;51.848;107.620;2023-06-04T21:16:46;94733.84;;;9.84;81.61
59829;BME280;45708;51.848;107.620;2023-06-04T21:21:47;94738.47;;;10.00;81.53
59829;BME280;45708;51.848;107.620;2023-06-04T21:26:47;94733.47;;;10.10;81.37
59829;BME280;45708;51.848;107.620;2023-06-04T21:31:48;94734.75;;;10.19;81.76
59829;BME280;45708;51.848;107.620;2023-06-04T21:36:49;94737.81;;;10.34;82.13
59829;BME280;45708;51.848;107.620;2023-06-04T21:41:50;94741.31;;;10.47;81.44
59829;BME280;45708;51.848;107.620;2023-06-04T21:46:51;94739.47;;;10.59;81.23
59829;BME280;45708;51.848;107.620;2023-06-04T21:51:51;94753.06;;;10.74;80.72
59829;BME280;45708;51.848;107.620;2023-06-04T21:56:52;94750.31;;;10.92;80.12
59829;BME280;45708;51.848;107.620;2023-06-04T22:01:53;94746.06;;;11.15;79.34
59829;BME280;45708;51.848;107.620;2023-06-04T22:06:54;94748.59;;;11.45;78.85
59829;BME280;45708;51.848;107.620;2023-06-04T22:11:54;94751.59;;;12.00;77.08
59829;BME280;45708;51.848;107.620;2023-06-04T22:16:55;94745.41;;;14.01;72.09
59829;BME280;45708;51.848;107.620;2023-06-04T22:21:56;94745.25;;;16.25;65.12
59829;BME280;45708;51.848;107.620;2023-06-04T22:26:57;94753.38;;;17.01;61.68
59829;BME280;45708;51.848;107.620;2023-06-04T22:31:57;94760.13;;;16.21;62.58
59829;BME280;45708;51.848;107.620;2023-06-04T22:36:58;94770.63;;;15.38;64.92
59829;BME280;45708;51.848;107.620;2023-06-04T22:41:59;94767.84;;;14.86;65.57
59829;BME280;45708;51.848;107.620;2023-06-04T22:47:00;94752.41;;;14.56;66.93
59829;BME280;45708;51.848;107.620;2023-06-04T22:52:01;94761.94;;;17.03;61.38
59829;BME280;45708;51.848;107.620;2023-06-04T22:57:01;94767.69;;;18.02;56.69
59829;BME280;45708;51.848;107.620;2023-06-04T23:02:02;94773.94;;;17.11;58.79
59829;BME280;45708;51.848;107.620;2023-06-04T23:07:03;94768.28;;;16.62;59.80
59829;BME280;45708;51.848;107.620;2023-06-04T23:12:04;94773.69;;;17.02;58.70
59829;BME280;45708;51.848;107.620;2023-06-04T23:17:05;94762.47;;;18.86;54.87
59829;BME280;45708;51.848;107.620;2023-06-04T23:22:06;94758.69;;;21.58;48.28
59829;BME280;45708;51.848;107.620;2023-06-04T23:27:07;94748.84;;;22.99;44.71
59829;BME280;45708;51.848;107.620;2023-06-04T23:32:07;94762.94;;;22.96;44.50
59829;BME280;45708;51.848;107.620;2023-06-04T23:37:09;94766.59;;;21.96;46.08
59829;BME280;45708;51.848;107.620;2023-06-04T23:42:10;94756.00;;;21.25;47.50
59829;BME280;45708;51.848;107.620;2023-06-04T23:47:10;94753.91;;;20.47;48.80
59829;BME280;45708;51.848;107.620;2023-06-04T23:52:11;94768.31;;;19.85;50.28
59829;BME280;45708;51.848;107.620;2023-06-04T23:57:12;94769.22;;;19.75;50.37
